Time;durP1;ratioP1;P1;durP2;ratioP2;P2;SDS_P1;SDS_P2;PMS_P1;PMS_P2;Temp;Humidity;BMP_temperature;BMP_pressure;BME280_temperature;BME280_humidity;BME280_pressure;Samples;Min_cycle;Max_cycle;Signal;HPM_P1;HPM_P2
2022/03/22 00:01:32;;;;;;;70.17;40.50;;;;;;;;;;777419;178;920094;-63
2022/03/22 00:04:02;;;;;;;69.22;41.92;;;;;;;;;;770096;179;913797;-63
2022/03/22 00:06:24;;;;;;;69.70;42.37;;;;;;;;;;781035;179;914106;-62
2022/03/22 00:08:50;;;;;;;74.13;42.60;;;;;;;;;;770405;180;920448;-62
2022/03/22 00:11:16;;;;;;;70.53;42.40;;;;;;;;;;770189;178;913675;-62
2022/03/22 00:13:43;;;;;;;70.27;42.43;;;;;;;;;;777453;177;918908;-61
2022/03/22 00:16:07;;;;;;;64.53;39.00;;;;;;;;;;772551;176;920676;-62
2022/03/22 00:18:33;;;;;;;73.17;42.33;;;;;;;;;;773346;178;919243;-62
2022/03/22 00:20:59;;;;;;;64.93;40.37;;;;;;;;;;788237;177;918986;-62
2022/03/22 00:23:25;;;;;;;76.18;44.70;;;;;;;;;;768860;179;918852;-62
2022/03/22 00:25:51;;;;;;;69.07;41.20;;;;;;;;;;765660;180;919437;-62
2022/03/22 00:28:17;;;;;;;70.77;41.73;;;;;;;;;;764106;180;919671;-62
2022/03/22 00:30:43;;;;;;;67.83;41.90;;;;;;;;;;770508;183;919416;-63
2022/03/22 00:33:08;;;;;;;72.47;42.53;;;;;;;;;;766575;182;919163;-62
2022/03/22 00:35:36;;;;;;;80.03;42.03;;;;;;;;;;780314;176;715324;-63
2022/03/22 00:38:01;;;;;;;73.20;41.63;;;;;;;;;;778160;177;918314;-63
2022/03/22 00:40:26;;;;;;;79.07;42.85;;;;;;;;;;776040;179;919699;-62
2022/03/22 00:42:53;;;;;;;66.53;44.37;;;;;;;;;;781047;177;919722;-62
2022/03/22 00:45:19;;;;;;;70.33;44.63;;;;;;;;;;774039;182;919217;-62
2022/03/22 00:47:45;;;;;;;72.30;42.27;;;;;;;;;;768324;182;919813;-63
2022/03/22 00:50:11;;;;;;;69.90;44.67;;;;;;;;;;768510;180;632863;-64
2022/03/22 00:52:36;;;;;;;68.23;44.73;;;;;;;;;;765297;180;919482;-61
2022/03/22 00:55:04;;;;;;;72.43;46.53;;;;;;;;;;769733;180;918772;-62
2022/03/22 00:57:28;;;;;;;71.47;42.03;;;;;;;;;;766655;181;919597;-62
2022/03/22 01:02:26;;;;;;;73.50;43.57;;;;;;;;;;781561;180;919698;-61
2022/03/22 01:04:51;;;;;;;71.43;43.43;;;;;;;;;;777259;176;919370;-62
2022/03/22 01:07:17;;;;;;;73.87;44.40;;;;;;;;;;769185;181;919771;-61
2022/03/22 01:09:43;;;;;;;65.17;40.97;;;;;;;;;;767150;180;920047;-62
2022/03/22 01:12:09;;;;;;;73.57;45.57;;;;;;;;;;769575;182;918924;-62
2022/03/22 01:14:35;;;;;;;75.57;46.20;;;;;;;;;;764445;179;919447;-62
2022/03/22 01:17:01;;;;;;;74.93;45.10;;;;;;;;;;770826;178;920122;-63
2022/03/22 01:19:27;;;;;;;67.97;43.03;;;;;;;;;;775513;179;637473;-63
2022/03/22 01:21:53;;;;;;;73.00;44.67;;;;;;;;;;768244;180;919479;-63
2022/03/22 01:24:18;;;;;;;71.20;43.03;;;;;;;;;;766276;180;924577;-63
2022/03/22 01:26:44;;;;;;;70.87;44.20;;;;;;;;;;771839;180;921177;-62
2022/03/22 01:29:11;;;;;;;74.40;44.37;;;;;;;;;;774526;179;919920;-64
2022/03/22 01:31:36;;;;;;;72.30;45.70;;;;;;;;;;774002;177;919125;-62
2022/03/22 01:34:03;;;;;;;68.83;44.50;;;;;;;;;;774588;180;920511;-61
2022/03/22 01:36:30;;;;;;;67.07;44.17;;;;;;;;;;778361;180;922272;-62
2022/03/22 01:38:53;;;;;;;76.40;46.90;;;;;;;;;;777364;180;920373;-62
2022/03/22 01:41:19;;;;;;;74.80;45.50;;;;;;;;;;776505;179;921741;-62
2022/03/22 01:43:46;;;;;;;68.07;43.90;;;;;;;;;;770279;182;918644;-60
2022/03/22 01:46:11;;;;;;;70.90;44.40;;;;;;;;;;766227;182;919739;-61
2022/03/22 01:48:37;;;;;;;68.93;43.27;;;;;;;;;;773651;176;915814;-62
2022/03/22 01:51:03;;;;;;;72.40;43.37;;;;;;;;;;787806;175;625265;-62
2022/03/22 01:53:29;;;;;;;79.60;43.37;;;;;;;;;;777846;175;912643;-64
2022/03/22 01:55:54;;;;;;;69.87;44.43;;;;;;;;;;778010;179;915212;-61
2022/03/22 01:58:20;;;;;;;75.60;46.87;;;;;;;;;;782108;180;910291;-62
2022/03/22 02:00:46;;;;;;;68.65;44.13;;;;;;;;;;769091;179;918674;-62
2022/03/22 02:06:02;;;;;;;80.03;45.80;;;;;;;;;;770025;179;917394;-64
2022/03/22 02:08:28;;;;;;;68.53;44.63;;;;;;;;;;781612;177;633240;-61
2022/03/22 02:10:54;;;;;;;76.27;47.30;;;;;;;;;;773533;179;915501;-61
2022/03/22 02:13:20;;;;;;;73.33;45.67;;;;;;;;;;767451;177;920147;-62
2022/03/22 02:15:46;;;;;;;73.47;47.37;;;;;;;;;;783617;175;916013;-62
2022/03/22 02:18:12;;;;;;;75.80;45.88;;;;;;;;;;769834;179;916748;-61
2022/03/22 02:20:38;;;;;;;76.30;46.17;;;;;;;;;;772908;180;914857;-62
2022/03/22 02:23:03;;;;;;;81.30;47.87;;;;;;;;;;767911;179;920409;-61
2022/03/22 02:25:29;;;;;;;91.03;50.33;;;;;;;;;;771302;179;637237;-61
2022/03/22 02:27:55;;;;;;;77.33;45.97;;;;;;;;;;773827;180;915596;-61
2022/03/22 02:30:21;;;;;;;80.43;46.93;;;;;;;;;;784879;178;916298;-61
2022/03/22 02:32:50;;;;;;;76.37;46.40;;;;;;;;;;774565;180;926494;-61
2022/03/22 02:35:15;;;;;;;76.63;47.70;;;;;;;;;;786686;177;914796;-62
2022/03/22 02:37:41;;;;;;;85.20;48.70;;;;;;;;;;772651;178;919956;-62
2022/03/22 02:40:07;;;;;;;73.25;44.85;;;;;;;;;;772182;179;920072;-62
2022/03/22 02:42:33;;;;;;;84.00;46.83;;;;;;;;;;772773;182;918818;-61
2022/03/22 02:44:59;;;;;;;83.73;48.87;;;;;;;;;;754896;182;633888;-62
2022/03/22 02:47:25;;;;;;;77.50;44.03;;;;;;;;;;744633;189;629270;-61
2022/03/22 02:49:51;;;;;;;67.43;42.70;;;;;;;;;;750808;182;874899;-61
2022/03/22 02:52:17;;;;;;;76.40;44.57;;;;;;;;;;776453;180;919382;-61
2022/03/22 02:54:42;;;;;;;77.50;49.17;;;;;;;;;;782042;176;920574;-64
2022/03/22 02:57:08;;;;;;;73.53;44.70;;;;;;;;;;773416;179;919388;-62
2022/03/22 02:59:34;;;;;;;71.03;44.78;;;;;;;;;;777136;180;919526;-60
2022/03/22 03:02:01;;;;;;;77.70;48.10;;;;;;;;;;764279;179;920532;-61
2022/03/22 03:04:26;;;;;;;73.40;43.97;;;;;;;;;;770595;179;921622;-61
2022/03/22 03:06:52;;;;;;;75.65;45.22;;;;;;;;;;779119;180;920940;-60
2022/03/22 03:09:18;;;;;;;76.20;46.53;;;;;;;;;;772106;178;906366;-61
2022/03/22 03:11:44;;;;;;;82.73;46.70;;;;;;;;;;760227;184;939608;-61
2022/03/22 03:16:41;;;;;;;68.90;46.23;;;;;;;;;;789016;176;920332;-62
2022/03/22 03:19:07;;;;;;;73.13;46.73;;;;;;;;;;781199;177;919769;-61
2022/03/22 03:21:33;;;;;;;73.67;47.00;;;;;;;;;;777293;180;919666;-62
2022/03/22 03:23:59;;;;;;;73.22;47.30;;;;;;;;;;782737;180;919390;-62
2022/03/22 03:26:25;;;;;;;76.30;48.70;;;;;;;;;;782874;178;817418;-61
2022/03/22 03:28:51;;;;;;;74.90;45.33;;;;;;;;;;770648;182;921580;-61
2022/03/22 03:31:17;;;;;;;72.57;45.43;;;;;;;;;;762613;180;921519;-62
2022/03/22 03:33:42;;;;;;;79.50;46.10;;;;;;;;;;776308;180;918728;-62
2022/03/22 03:36:08;;;;;;;65.30;41.67;;;;;;;;;;766715;180;919560;-61
2022/03/22 03:38:41;;;;;;;78.73;47.10;;;;;;;;;;765985;177;921452;-61
2022/03/22 03:43:32;;;;;;;80.90;47.50;;;;;;;;;;780213;179;915538;-62
2022/03/22 03:48:29;;;;;;;75.97;47.20;;;;;;;;;;769691;179;1016385;-61
2022/03/22 03:50:55;;;;;;;74.30;45.70;;;;;;;;;;775693;179;925981;-62
2022/03/22 03:53:23;;;;;;;85.80;48.70;;;;;;;;;;776088;179;942056;-61
2022/03/22 03:55:47;;;;;;;74.00;46.90;;;;;;;;;;776541;179;919534;-62
2022/03/22 03:58:13;;;;;;;73.80;48.53;;;;;;;;;;774293;180;919027;-61
2022/03/22 04:00:39;;;;;;;79.73;47.27;;;;;;;;;;779867;179;936906;-62
2022/03/22 04:03:04;;;;;;;83.17;46.17;;;;;;;;;;782249;177;919645;-62
2022/03/22 04:05:30;;;;;;;69.87;47.47;;;;;;;;;;783677;177;919951;-61
2022/03/22 04:07:56;;;;;;;73.97;44.83;;;;;;;;;;771230;179;916536;-61
2022/03/22 04:10:22;;;;;;;76.33;43.73;;;;;;;;;;769003;179;1027262;-61
2022/03/22 04:12:48;;;;;;;70.50;45.17;;;;;;;;;;774067;177;920594;-61
2022/03/22 04:15:14;;;;;;;69.83;45.03;;;;;;;;;;776874;178;916960;-62
2022/03/22 04:17:39;;;;;;;77.77;46.37;;;;;;;;;;782112;177;918542;-61
2022/03/22 04:20:07;;;;;;;68.23;46.97;;;;;;;;;;782064;178;922906;-62
2022/03/22 04:22:32;;;;;;;78.50;46.60;;;;;;;;;;772701;180;915543;-62
2022/03/22 04:24:57;;;;;;;82.53;46.30;;;;;;;;;;774724;177;919084;-60
2022/03/22 04:34:58;;;;;;;71.17;47.43;;;;;;;;;;768632;180;921295;-61
2022/03/22 04:37:24;;;;;;;76.03;48.13;;;;;;;;;;766876;180;919588;-60
2022/03/22 04:39:50;;;;;;;74.93;45.63;;;;;;;;;;769467;179;957136;-62
2022/03/22 04:42:15;;;;;;;76.17;47.70;;;;;;;;;;774811;180;919194;-60
2022/03/22 04:44:41;;;;;;;81.80;46.00;;;;;;;;;;769499;180;923620;-61
2022/03/22 04:47:07;;;;;;;75.22;46.67;;;;;;;;;;769231;179;919308;-62
2022/03/22 04:49:33;;;;;;;79.30;47.10;;;;;;;;;;772666;177;919977;-63
2022/03/22 04:57:02;;;;;;;75.00;44.80;;;;;;;;;;770065;179;919689;-62
2022/03/22 04:59:28;;;;;;;73.03;45.63;;;;;;;;;;776565;179;1021779;-62
2022/03/22 05:01:54;;;;;;;72.40;47.50;;;;;;;;;;773404;177;921577;-62
2022/03/22 05:04:19;;;;;;;75.13;48.33;;;;;;;;;;778432;179;918078;-62
2022/03/22 05:06:45;;;;;;;84.30;47.13;;;;;;;;;;772783;179;919982;-60
2022/03/22 05:09:11;;;;;;;80.73;45.37;;;;;;;;;;780907;177;919153;-63
2022/03/22 05:11:37;;;;;;;70.87;43.50;;;;;;;;;;775283;179;921029;-61
2022/03/22 05:14:03;;;;;;;70.80;43.80;;;;;;;;;;773794;180;618149;-62
2022/03/22 05:16:29;;;;;;;85.77;48.77;;;;;;;;;;778939;180;614145;-62
2022/03/22 05:18:55;;;;;;;68.60;47.10;;;;;;;;;;776388;178;784088;-62
2022/03/22 05:21:21;;;;;;;75.63;48.27;;;;;;;;;;781689;177;627681;-61
2022/03/22 05:23:47;;;;;;;75.83;49.03;;;;;;;;;;774711;179;890645;-62
2022/03/22 05:26:13;;;;;;;82.10;48.90;;;;;;;;;;771410;178;919319;-62
2022/03/22 05:28:39;;;;;;;69.93;46.70;;;;;;;;;;773642;179;919184;-61
2022/03/22 05:31:05;;;;;;;82.60;48.03;;;;;;;;;;780480;179;920073;-60
2022/03/22 05:33:31;;;;;;;81.80;47.50;;;;;;;;;;766372;179;919093;-61
2022/03/22 05:35:57;;;;;;;77.62;48.40;;;;;;;;;;767069;180;920046;-62
2022/03/22 05:38:25;;;;;;;82.77;49.50;;;;;;;;;;768176;180;919869;-61
2022/03/22 05:40:48;;;;;;;90.23;53.10;;;;;;;;;;781589;177;918259;-62
2022/03/22 05:43:14;;;;;;;88.90;52.00;;;;;;;;;;770683;179;920830;-61
2022/03/22 05:45:40;;;;;;;101.77;57.30;;;;;;;;;;771052;179;919402;-61
2022/03/22 05:48:07;;;;;;;101.10;58.07;;;;;;;;;;775530;179;919321;-62
2022/03/22 05:50:32;;;;;;;103.23;59.57;;;;;;;;;;777138;177;919480;-61
2022/03/22 05:52:58;;;;;;;96.43;57.87;;;;;;;;;;770953;180;919731;-61
2022/03/22 05:55:23;;;;;;;96.12;61.25;;;;;;;;;;775180;179;919197;-61
2022/03/22 05:57:49;;;;;;;106.73;55.30;;;;;;;;;;768768;179;919879;-61
2022/03/22 06:00:18;;;;;;;95.85;59.05;;;;;;;;;;769940;179;921627;-61
2022/03/22 06:02:41;;;;;;;97.77;58.80;;;;;;;;;;772729;179;865483;-62
2022/03/22 06:05:08;;;;;;;79.20;51.60;;;;;;;;;;761562;182;635154;-62
2022/03/22 06:07:34;;;;;;;79.33;51.07;;;;;;;;;;754656;182;629286;-60
2022/03/22 06:10:00;;;;;;;76.80;48.30;;;;;;;;;;768241;180;918681;-61
2022/03/22 06:12:26;;;;;;;64.70;43.67;;;;;;;;;;775111;180;919909;-61
2022/03/22 06:15:14;;;;;;;67.90;44.85;;;;;;;;;;773735;176;919148;-60
2022/03/22 06:17:17;;;;;;;72.50;41.77;;;;;;;;;;767406;180;989455;-61
2022/03/22 06:19:43;;;;;;;77.18;39.15;;;;;;;;;;774669;177;919477;-61
2022/03/22 06:22:09;;;;;;;67.67;34.67;;;;;;;;;;773921;177;916145;-61
2022/03/22 06:24:35;;;;;;;55.10;34.00;;;;;;;;;;770517;178;919644;-61
2022/03/22 06:27:01;;;;;;;56.30;31.40;;;;;;;;;;770335;178;920225;-60
2022/03/22 06:29:26;;;;;;;54.37;33.60;;;;;;;;;;769917;182;918712;-61
2022/03/22 06:31:52;;;;;;;61.40;35.70;;;;;;;;;;768880;178;919427;-62
2022/03/22 06:34:18;;;;;;;59.97;34.03;;;;;;;;;;769540;180;919681;-61
2022/03/22 06:36:44;;;;;;;48.33;29.77;;;;;;;;;;775265;179;919177;-61
2022/03/22 06:39:10;;;;;;;47.83;28.03;;;;;;;;;;780319;177;919844;-61
2022/03/22 06:41:36;;;;;;;51.07;28.90;;;;;;;;;;774857;179;919135;-60
2022/03/22 06:44:02;;;;;;;60.22;34.55;;;;;;;;;;774898;180;919575;-62
2022/03/22 06:46:27;;;;;;;59.00;32.80;;;;;;;;;;773475;179;919779;-61
2022/03/22 06:48:53;;;;;;;51.17;32.37;;;;;;;;;;770423;179;956326;-63
2022/03/22 06:51:21;;;;;;;51.13;27.93;;;;;;;;;;776280;180;896829;-64
2022/03/22 06:53:45;;;;;;;50.03;27.67;;;;;;;;;;762478;178;1833836;-63
2022/03/22 06:56:14;;;;;;;41.57;25.87;;;;;;;;;;771902;179;918451;-64
2022/03/22 06:58:37;;;;;;;46.57;26.73;;;;;;;;;;769330;179;919593;-64
2022/03/22 07:01:04;;;;;;;43.00;26.57;;;;;;;;;;781757;176;919057;-64
2022/03/22 07:03:29;;;;;;;42.13;25.13;;;;;;;;;;770877;179;921028;-64
2022/03/22 07:05:55;;;;;;;38.47;25.77;;;;;;;;;;770417;179;907362;-62
2022/03/22 07:08:20;;;;;;;47.40;28.33;;;;;;;;;;769426;180;1840807;-65
2022/03/22 07:11:47;;;;;;;53.37;30.63;;;;;;;;;;769734;180;919439;-65
2022/03/22 07:13:12;;;;;;;48.50;27.83;;;;;;;;;;773782;177;916286;-65
2022/03/22 07:15:38;;;;;;;45.53;26.10;;;;;;;;;;777707;179;915748;-65
2022/03/22 07:18:05;;;;;;;37.20;23.53;;;;;;;;;;773685;179;920105;-65
2022/03/22 07:20:29;;;;;;;48.93;25.13;;;;;;;;;;760542;180;970532;-65
2022/03/22 07:22:55;;;;;;;47.80;24.33;;;;;;;;;;769801;179;920231;-65
2022/03/22 07:25:21;;;;;;;38.97;21.50;;;;;;;;;;771767;179;920205;-65
2022/03/22 07:27:47;;;;;;;45.70;22.60;;;;;;;;;;769037;180;918985;-66
2022/03/22 07:30:14;;;;;;;45.63;23.70;;;;;;;;;;770431;180;919044;-64
2022/03/22 07:32:39;;;;;;;36.10;21.90;;;;;;;;;;783931;176;703363;-65
2022/03/22 07:35:05;;;;;;;39.83;22.02;;;;;;;;;;775603;178;919263;-65
2022/03/22 07:37:31;;;;;;;39.97;22.37;;;;;;;;;;776998;179;640124;-66
2022/03/22 07:39:57;;;;;;;32.40;18.70;;;;;;;;;;777875;179;1019805;-66
2022/03/22 07:42:24;;;;;;;34.00;17.73;;;;;;;;;;773320;179;915651;-65
2022/03/22 07:44:48;;;;;;;28.83;14.37;;;;;;;;;;778072;176;1019850;-64
2022/03/22 07:47:15;;;;;;;35.03;16.90;;;;;;;;;;775558;178;929909;-65
2022/03/22 07:54:43;;;;;;;50.60;22.67;;;;;;;;;;770284;179;920597;-64
2022/03/22 07:57:09;;;;;;;72.23;28.13;;;;;;;;;;771421;179;919527;-64
2022/03/22 07:59:35;;;;;;;35.92;18.87;;;;;;;;;;777478;178;917832;-65
2022/03/22 08:02:01;;;;;;;33.13;19.57;;;;;;;;;;776700;177;920364;-65
2022/03/22 08:04:27;;;;;;;34.67;17.40;;;;;;;;;;771746;179;926477;-64
2022/03/22 08:06:53;;;;;;;30.70;15.67;;;;;;;;;;777468;180;919552;-64
2022/03/22 08:09:19;;;;;;;51.37;23.43;;;;;;;;;;771485;179;929656;-64
2022/03/22 08:11:44;;;;;;;29.70;13.93;;;;;;;;;;772337;179;920333;-63
2022/03/22 08:14:10;;;;;;;30.63;18.57;;;;;;;;;;781194;177;917293;-63
2022/03/22 08:16:37;;;;;;;26.00;15.07;;;;;;;;;;771953;179;969246;-63
2022/03/22 08:19:05;;;;;;;28.50;18.97;;;;;;;;;;770376;180;1021682;-63
2022/03/22 08:21:29;;;;;;;27.70;15.13;;;;;;;;;;778440;179;919295;-63
2022/03/22 08:23:55;;;;;;;25.03;16.90;;;;;;;;;;778152;179;919995;-63
2022/03/22 08:26:21;;;;;;;24.83;12.67;;;;;;;;;;771599;178;918944;-65
2022/03/22 08:28:49;;;;;;;20.48;10.73;;;;;;;;;;773649;179;918477;-64
2022/03/22 08:31:13;;;;;;;23.13;12.67;;;;;;;;;;776851;179;920342;-65
2022/03/22 08:33:39;;;;;;;22.33;13.23;;;;;;;;;;771441;179;919335;-65
2022/03/22 08:36:05;;;;;;;18.33;11.90;;;;;;;;;;775903;180;617981;-65
2022/03/22 08:38:30;;;;;;;24.30;13.77;;;;;;;;;;777269;180;919769;-65
2022/03/22 08:40:56;;;;;;;30.90;19.83;;;;;;;;;;777975;179;816623;-65
2022/03/22 08:43:25;;;;;;;24.35;12.85;;;;;;;;;;784549;178;914821;-65
2022/03/22 08:45:48;;;;;;;18.30;13.90;;;;;;;;;;782972;180;811879;-65
2022/03/22 08:48:14;;;;;;;18.77;11.97;;;;;;;;;;776858;180;930125;-65
2022/03/22 08:50:42;;;;;;;25.13;14.00;;;;;;;;;;767514;179;1017630;-66
2022/03/22 08:53:08;;;;;;;19.47;11.83;;;;;;;;;;774284;176;919513;-64
2022/03/22 08:55:35;;;;;;;25.50;16.37;;;;;;;;;;784801;178;920591;-67
2022/03/22 08:58:05;;;;;;;20.97;12.77;;;;;;;;;;767885;180;930448;-65
2022/03/22 09:00:28;;;;;;;32.50;18.70;;;;;;;;;;779775;177;921228;-65
2022/03/22 09:02:54;;;;;;;23.43;14.73;;;;;;;;;;784193;177;919868;-66
2022/03/22 09:07:52;;;;;;;37.13;23.50;;;;;;;;;;781766;177;938965;-65
2022/03/22 09:10:19;;;;;;;21.67;13.50;;;;;;;;;;774489;179;919440;-67
2022/03/22 09:12:44;;;;;;;19.67;11.30;;;;;;;;;;775779;179;915677;-66
2022/03/22 09:15:11;;;;;;;18.43;12.00;;;;;;;;;;781138;178;915645;-66
2022/03/22 09:17:35;;;;;;;14.83;10.40;;;;;;;;;;781715;179;913647;-65
2022/03/22 09:20:01;;;;;;;14.70;9.50;;;;;;;;;;780515;179;638589;-65
2022/03/22 09:22:27;;;;;;;17.13;10.90;;;;;;;;;;772845;179;916458;-66
2022/03/22 09:24:53;;;;;;;21.67;11.87;;;;;;;;;;771795;179;915855;-66
2022/03/22 09:27:19;;;;;;;14.37;10.43;;;;;;;;;;771211;179;916459;-66
2022/03/22 09:29:45;;;;;;;17.17;10.30;;;;;;;;;;779703;179;623939;-67
2022/03/22 09:32:10;;;;;;;19.67;10.70;;;;;;;;;;768658;181;916691;-66
2022/03/22 09:34:36;;;;;;;20.35;12.48;;;;;;;;;;773560;179;913620;-67
2022/03/22 09:37:02;;;;;;;19.20;11.10;;;;;;;;;;776371;180;908064;-67
2022/03/22 09:39:28;;;;;;;20.03;12.73;;;;;;;;;;771084;180;919381;-67
2022/03/22 09:41:56;;;;;;;18.50;10.50;;;;;;;;;;766753;180;1020755;-66
2022/03/22 09:44:20;;;;;;;18.50;11.90;;;;;;;;;;776158;180;918362;-66
2022/03/22 09:46:46;;;;;;;18.73;10.80;;;;;;;;;;774170;180;919637;-67
2022/03/22 09:49:11;;;;;;;18.73;11.25;;;;;;;;;;771110;179;919335;-66
2022/03/22 09:54:09;;;;;;;17.87;10.60;;;;;;;;;;781187;175;918271;-68
2022/03/22 09:56:35;;;;;;;17.70;11.90;;;;;;;;;;773862;180;919219;-67
2022/03/22 09:59:01;;;;;;;22.20;11.60;;;;;;;;;;768494;178;919673;-67
2022/03/22 10:01:27;;;;;;;15.90;10.70;;;;;;;;;;774635;180;919478;-67
2022/03/22 10:03:56;;;;;;;13.13;9.70;;;;;;;;;;769419;180;919601;-67
2022/03/22 10:06:22;;;;;;;17.93;11.50;;;;;;;;;;775964;177;1022769;-66
2022/03/22 10:08:49;;;;;;;17.27;10.50;;;;;;;;;;771097;179;999813;-67
2022/03/22 10:11:15;;;;;;;17.63;12.53;;;;;;;;;;778089;179;920816;-67
2022/03/22 10:13:50;;;;;;;14.07;9.80;;;;;;;;;;770909;177;919530;-66
2022/03/22 10:16:15;;;;;;;15.87;10.30;;;;;;;;;;770293;178;918608;-67
2022/03/22 10:18:41;;;;;;;15.63;10.52;;;;;;;;;;779221;177;919151;-67
2022/03/22 10:21:07;;;;;;;13.20;9.87;;;;;;;;;;770123;179;919239;-67
2022/03/22 10:23:33;;;;;;;16.97;9.27;;;;;;;;;;770320;179;919395;-68
2022/03/22 10:26:01;;;;;;;18.90;10.03;;;;;;;;;;769179;179;919541;-67
2022/03/22 10:28:27;;;;;;;14.30;9.30;;;;;;;;;;777237;179;919424;-67
2022/03/22 10:30:54;;;;;;;15.30;9.30;;;;;;;;;;776576;179;918584;-67
2022/03/22 10:33:20;;;;;;;15.47;10.03;;;;;;;;;;770801;178;919661;-68
2022/03/22 10:35:46;;;;;;;15.20;10.20;;;;;;;;;;778343;177;919709;-67
2022/03/22 10:38:12;;;;;;;14.50;10.00;;;;;;;;;;771654;178;907352;-70
2022/03/22 10:40:40;;;;;;;16.80;9.20;;;;;;;;;;770576;179;1087524;-69
2022/03/22 10:43:05;;;;;;;14.70;9.87;;;;;;;;;;769186;179;919887;-67
2022/03/22 10:45:33;;;;;;;14.63;10.13;;;;;;;;;;781581;179;629282;-69
2022/03/22 10:47:57;;;;;;;12.30;8.33;;;;;;;;;;773246;180;896527;-68
2022/03/22 10:50:23;;;;;;;13.77;10.63;;;;;;;;;;775622;177;922333;-68
2022/03/22 10:52:50;;;;;;;12.20;9.10;;;;;;;;;;774169;179;915988;-68
2022/03/22 10:55:19;;;;;;;12.60;9.23;;;;;;;;;;779006;179;919257;-68
2022/03/22 10:57:43;;;;;;;15.07;8.37;;;;;;;;;;780679;179;639714;-69
2022/03/22 11:00:09;;;;;;;12.80;8.33;;;;;;;;;;787211;176;616626;-68
2022/03/22 11:02:35;;;;;;;15.03;10.20;;;;;;;;;;774334;180;908225;-69
2022/03/22 11:05:03;;;;;;;17.90;9.90;;;;;;;;;;766755;180;917682;-69
2022/03/22 11:07:27;;;;;;;14.52;9.35;;;;;;;;;;772089;177;918970;-69
2022/03/22 11:09:52;;;;;;;11.13;9.57;;;;;;;;;;780943;178;920296;-69
2022/03/22 11:12:18;;;;;;;14.17;9.40;;;;;;;;;;776117;179;672143;-69
2022/03/22 11:14:44;;;;;;;13.80;10.43;;;;;;;;;;782619;180;615849;-70
2022/03/22 11:17:10;;;;;;;16.20;10.03;;;;;;;;;;786474;179;620316;-69
2022/03/22 11:19:36;;;;;;;12.70;8.90;;;;;;;;;;771979;180;631220;-68
2022/03/22 11:22:03;;;;;;;15.77;9.80;;;;;;;;;;764007;180;1021890;-68
2022/03/22 11:24:29;;;;;;;12.52;8.98;;;;;;;;;;772719;180;919496;-68
2022/03/22 11:26:56;;;;;;;18.23;9.00;;;;;;;;;;771817;180;613814;-71
2022/03/22 11:29:22;;;;;;;18.77;10.53;;;;;;;;;;775644;179;675972;-69
2022/03/22 11:34:09;;;;;;;12.10;9.70;;;;;;;;;;775341;179;633698;-69
2022/03/22 11:34:16;;;;;;;16.33;9.83;;;;;;;;;;774324;179;928547;-69
2022/03/22 11:36:45;;;;;;;14.70;9.80;;;;;;;;;;771757;179;919563;-69
2022/03/22 11:39:16;;;;;;;15.80;10.88;;;;;;;;;;773848;179;919551;-69
2022/03/22 11:44:14;;;;;;;15.50;10.13;;;;;;;;;;786530;177;919517;-69
2022/03/22 11:46:40;;;;;;;13.67;9.17;;;;;;;;;;767603;179;919610;-69
2022/03/22 11:49:19;;;;;;;15.60;10.60;;;;;;;;;;768479;179;919296;-69
2022/03/22 11:51:48;;;;;;;16.75;11.43;;;;;;;;;;777169;180;919368;-69
2022/03/22 11:54:14;;;;;;;14.30;10.47;;;;;;;;;;782085;179;917737;-69
2022/03/22 11:56:44;;;;;;;19.00;11.50;;;;;;;;;;777121;180;919252;-69
2022/03/22 11:59:10;;;;;;;16.07;10.67;;;;;;;;;;774490;180;919486;-70
2022/03/22 12:01:36;;;;;;;18.80;10.77;;;;;;;;;;774330;180;918957;-68
2022/03/22 12:04:04;;;;;;;17.63;11.50;;;;;;;;;;777150;179;919634;-69
2022/03/22 12:06:28;;;;;;;16.00;10.77;;;;;;;;;;771998;179;919074;-69
2022/03/22 12:08:53;;;;;;;12.70;10.60;;;;;;;;;;771323;179;915024;-68
2022/03/22 12:11:19;;;;;;;17.87;11.20;;;;;;;;;;774253;179;915293;-68
2022/03/22 12:13:45;;;;;;;15.20;10.30;;;;;;;;;;774928;179;1019159;-69
2022/03/22 12:16:11;;;;;;;16.92;10.63;;;;;;;;;;774020;179;915824;-69
2022/03/22 12:18:37;;;;;;;16.93;11.13;;;;;;;;;;773988;179;918992;-69
2022/03/22 12:21:03;;;;;;;17.80;11.17;;;;;;;;;;767535;181;918608;-69
2022/03/22 12:23:29;;;;;;;15.10;10.70;;;;;;;;;;766774;178;1021494;-70
2022/03/22 12:25:54;;;;;;;16.70;10.83;;;;;;;;;;767876;180;939697;-69
2022/03/22 12:28:20;;;;;;;16.00;11.40;;;;;;;;;;775208;179;919058;-69
2022/03/22 12:30:47;;;;;;;13.63;10.70;;;;;;;;;;766435;178;920866;-69
2022/03/22 12:33:14;;;;;;;18.50;11.43;;;;;;;;;;768535;180;920951;-69
2022/03/22 12:35:40;;;;;;;21.73;11.73;;;;;;;;;;777434;177;917911;-70
2022/03/22 12:38:05;;;;;;;18.03;11.40;;;;;;;;;;764349;180;918984;-69
2022/03/22 12:40:31;;;;;;;17.57;12.37;;;;;;;;;;774643;177;918666;-70
2022/03/22 12:42:57;;;;;;;24.07;11.63;;;;;;;;;;767819;180;918844;-70
2022/03/22 12:45:23;;;;;;;16.83;10.83;;;;;;;;;;775315;179;919311;-70
2022/03/22 12:47:49;;;;;;;12.82;10.82;;;;;;;;;;768885;179;919475;-68
2022/03/22 12:50:15;;;;;;;16.50;10.90;;;;;;;;;;773245;177;920048;-69
2022/03/22 12:52:41;;;;;;;21.53;10.70;;;;;;;;;;786927;177;648890;-69
2022/03/22 12:55:07;;;;;;;17.50;10.53;;;;;;;;;;775838;179;972343;-70
2022/03/22 12:57:34;;;;;;;17.03;10.80;;;;;;;;;;774060;179;816208;-70
2022/03/22 12:59:58;;;;;;;14.27;11.13;;;;;;;;;;778932;179;619925;-70
2022/03/22 13:02:24;;;;;;;17.60;10.80;;;;;;;;;;770010;180;918108;-70
2022/03/22 13:04:50;;;;;;;14.30;10.43;;;;;;;;;;771846;179;921986;-70
2022/03/22 13:07:20;;;;;;;16.40;10.53;;;;;;;;;;772609;179;918776;-67
2022/03/22 13:12:17;;;;;;;14.17;10.30;;;;;;;;;;768852;180;919243;-70
2022/03/22 13:17:15;;;;;;;19.80;10.20;;;;;;;;;;769451;179;919026;-70
2022/03/22 13:19:41;;;;;;;14.73;10.70;;;;;;;;;;774551;180;919024;-69
2022/03/22 13:22:07;;;;;;;15.53;10.07;;;;;;;;;;776518;178;919458;-70
2022/03/22 13:24:35;;;;;;;14.73;10.00;;;;;;;;;;775211;179;919032;-70
2022/03/22 13:26:58;;;;;;;14.87;9.80;;;;;;;;;;776611;179;917415;-69
2022/03/22 13:29:25;;;;;;;19.40;11.70;;;;;;;;;;769350;180;920963;-68
2022/03/22 13:31:58;;;;;;;13.03;9.93;;;;;;;;;;774922;179;922748;-69
2022/03/22 13:34:24;;;;;;;20.00;9.63;;;;;;;;;;778378;179;918928;-69
2022/03/22 13:36:49;;;;;;;11.30;8.57;;;;;;;;;;784585;180;928025;-69
2022/03/22 13:39:21;;;;;;;18.40;10.20;;;;;;;;;;779744;180;923702;-70
2022/03/22 13:41:47;;;;;;;14.70;9.17;;;;;;;;;;779002;180;952888;-69
2022/03/22 13:44:13;;;;;;;13.43;9.38;;;;;;;;;;774268;180;918719;-68
2022/03/22 13:46:39;;;;;;;16.50;11.10;;;;;;;;;;760505;184;918536;-68
2022/03/22 13:49:05;;;;;;;14.87;9.30;;;;;;;;;;764589;182;918188;-68
2022/03/22 13:51:34;;;;;;;14.40;9.87;;;;;;;;;;765109;179;919006;-69
2022/03/22 13:53:57;;;;;;;14.90;12.77;;;;;;;;;;770635;179;919758;-69
2022/03/22 13:56:23;;;;;;;13.50;9.30;;;;;;;;;;766017;180;919396;-69
2022/03/22 13:58:48;;;;;;;19.67;10.40;;;;;;;;;;770427;179;919194;-69
2022/03/22 14:01:15;;;;;;;12.87;9.80;;;;;;;;;;779454;179;919245;-68
2022/03/22 14:03:40;;;;;;;13.70;10.03;;;;;;;;;;774606;180;1019493;-68
2022/03/22 14:06:06;;;;;;;15.90;9.37;;;;;;;;;;781417;179;916187;-69
2022/03/22 14:08:33;;;;;;;19.73;11.10;;;;;;;;;;784065;177;916278;-68
2022/03/22 14:10:58;;;;;;;12.73;8.93;;;;;;;;;;775954;179;1063052;-68
2022/03/22 14:13:23;;;;;;;13.30;9.40;;;;;;;;;;771653;179;916312;-68
2022/03/22 14:15:49;;;;;;;13.93;9.53;;;;;;;;;;779121;176;915876;-69
2022/03/22 14:18:15;;;;;;;17.57;11.00;;;;;;;;;;774953;180;919486;-69
2022/03/22 14:20:41;;;;;;;14.60;9.67;;;;;;;;;;763443;180;916079;-68
2022/03/22 14:23:07;;;;;;;15.68;9.43;;;;;;;;;;763636;180;1017301;-68
2022/03/22 14:25:34;;;;;;;10.80;9.60;;;;;;;;;;773086;179;920777;-69
2022/03/22 14:27:59;;;;;;;12.37;9.00;;;;;;;;;;770156;179;920444;-69
2022/03/22 14:30:24;;;;;;;12.07;9.82;;;;;;;;;;772023;176;920167;-69
2022/03/22 14:32:50;;;;;;;12.97;9.20;;;;;;;;;;779555;179;844504;-69
2022/03/22 14:37:48;;;;;;;14.60;9.87;;;;;;;;;;782139;178;915387;-69
2022/03/22 14:40:14;;;;;;;13.45;9.20;;;;;;;;;;777455;177;920660;-69
2022/03/22 14:42:39;;;;;;;14.40;10.30;;;;;;;;;;785661;177;918865;-68
2022/03/22 14:45:08;;;;;;;18.10;10.63;;;;;;;;;;779755;177;921625;-68